sensor_id;sensor_type;location;lat;lon;timestamp;temperature;humidity
32640;DHT22;19049;52.524;11.468;2022-12-18T00:00:44;-4.20;96.30
32640;DHT22;19049;52.524;11.468;2022-12-18T00:03:13;-4.20;96.30
32640;DHT22;19049;52.524;11.468;2022-12-18T00:05:49;-4.20;96.30
32640;DHT22;19049;52.524;11.468;2022-12-18T00:08:15;-4.20;96.30
32640;DHT22;19049;52.524;11.468;2022-12-18T00:10:41;-4.20;96.30
32640;DHT22;19049;52.524;11.468;2022-12-18T00:13:07;-4.20;96.30
32640;DHT22;19049;52.524;11.468;2022-12-18T00:15:37;-4.20;96.30
32640;DHT22;19049;52.524;11.468;2022-12-18T00:18:03;-4.20;96.30
32640;DHT22;19049;52.524;11.468;2022-12-18T00:20:29;-4.30;96.20
32640;DHT22;19049;52.524;11.468;2022-12-18T00:22:55;-4.30;96.20
32640;DHT22;19049;52.524;11.468;2022-12-18T00:25:21;-4.30;96.20
32640;DHT22;19049;52.524;11.468;2022-12-18T00:27:47;-4.30;96.20
32640;DHT22;19049;52.524;11.468;2022-12-18T00:30:13;-4.40;96.20
32640;DHT22;19049;52.524;11.468;2022-12-18T00:32:38;-4.40;96.10
32640;DHT22;19049;52.524;11.468;2022-12-18T00:35:05;-4.40;96.10
32640;DHT22;19049;52.524;11.468;2022-12-18T00:37:33;-4.50;96.00
32640;DHT22;19049;52.524;11.468;2022-12-18T00:39:58;-4.50;96.00
32640;DHT22;19049;52.524;11.468;2022-12-18T00:42:24;-4.50;96.00
32640;DHT22;19049;52.524;11.468;2022-12-18T00:45:08;-4.60;96.00
32640;DHT22;19049;52.524;11.468;2022-12-18T00:47:34;-4.60;96.00
32640;DHT22;19049;52.524;11.468;2022-12-18T00:49:59;-4.60;96.00
32640;DHT22;19049;52.524;11.468;2022-12-18T00:52:25;-4.70;95.90
32640;DHT22;19049;52.524;11.468;2022-12-18T00:54:51;-4.70;96.00
32640;DHT22;19049;52.524;11.468;2022-12-18T00:57:16;-4.70;95.90
32640;DHT22;19049;52.524;11.468;2022-12-18T00:59:42;-4.70;95.90
32640;DHT22;19049;52.524;11.468;2022-12-18T01:02:07;-4.80;95.80
32640;DHT22;19049;52.524;11.468;2022-12-18T01:04:33;-4.80;95.80
32640;DHT22;19049;52.524;11.468;2022-12-18T01:06:59;-4.90;95.70
32640;DHT22;19049;52.524;11.468;2022-12-18T01:09:25;-4.90;95.60
32640;DHT22;19049;52.524;11.468;2022-12-18T01:11:51;-5.00;95.60
32640;DHT22;19049;52.524;11.468;2022-12-18T01:14:17;-5.00;95.60
32640;DHT22;19049;52.524;11.468;2022-12-18T01:16:42;-5.10;95.60
32640;DHT22;19049;52.524;11.468;2022-12-18T01:19:11;-5.10;95.70
32640;DHT22;19049;52.524;11.468;2022-12-18T01:21:37;-5.20;95.70
32640;DHT22;19049;52.524;11.468;2022-12-18T01:24:05;-5.10;95.70
32640;DHT22;19049;52.524;11.468;2022-12-18T01:26:31;-5.20;95.70
32640;DHT22;19049;52.524;11.468;2022-12-18T01:28:57;-5.30;95.70
32640;DHT22;19049;52.524;11.468;2022-12-18T01:31:25;-5.30;95.70
32640;DHT22;19049;52.524;11.468;2022-12-18T01:33:52;-5.30;95.70
32640;DHT22;19049;52.524;11.468;2022-12-18T01:38:45;-5.40;95.60
32640;DHT22;19049;52.524;11.468;2022-12-18T01:41:11;-5.40;95.60
32640;DHT22;19049;52.524;11.468;2022-12-18T01:46:10;-5.50;95.40
32640;DHT22;19049;52.524;11.468;2022-12-18T01:48:36;-5.50;95.50
32640;DHT22;19049;52.524;11.468;2022-12-18T01:51:02;-5.60;95.40
32640;DHT22;19049;52.524;11.468;2022-12-18T01:53:28;-5.60;95.40
32640;DHT22;19049;52.524;11.468;2022-12-18T01:55:56;-5.60;95.40
32640;DHT22;19049;52.524;11.468;2022-12-18T01:58:29;-5.70;95.40
32640;DHT22;19049;52.524;11.468;2022-12-18T02:00:57;-5.80;95.40
32640;DHT22;19049;52.524;11.468;2022-12-18T02:03:23;-5.80;95.40
32640;DHT22;19049;52.524;11.468;2022-12-18T02:08:50;-5.90;95.40
32640;DHT22;19049;52.524;11.468;2022-12-18T02:25:06;-6.20;95.20
32640;DHT22;19049;52.524;11.468;2022-12-18T02:27:37;-6.20;95.30
32640;DHT22;19049;52.524;11.468;2022-12-18T02:30:04;-6.20;95.30
32640;DHT22;19049;52.524;11.468;2022-12-18T02:32:40;-6.20;95.30
32640;DHT22;19049;52.524;11.468;2022-12-18T02:35:22;-6.30;95.30
32640;DHT22;19049;52.524;11.468;2022-12-18T02:37:50;-6.30;95.30
32640;DHT22;19049;52.524;11.468;2022-12-18T02:40:22;-6.30;95.30
32640;DHT22;19049;52.524;11.468;2022-12-18T02:42:48;-6.30;95.30
32640;DHT22;19049;52.524;11.468;2022-12-18T02:45:14;-6.30;95.30
32640;DHT22;19049;52.524;11.468;2022-12-18T02:47:42;-6.30;95.40
32640;DHT22;19049;52.524;11.468;2022-12-18T02:53:20;-6.40;95.30
32640;DHT22;19049;52.524;11.468;2022-12-18T02:56:16;-6.40;95.30
32640;DHT22;19049;52.524;11.468;2022-12-18T02:59:00;-6.40;95.40
32640;DHT22;19049;52.524;11.468;2022-12-18T03:01:36;-6.40;95.40
32640;DHT22;19049;52.524;11.468;2022-12-18T03:04:17;-6.40;95.40
32640;DHT22;19049;52.524;11.468;2022-12-18T03:06:49;-6.40;95.40
32640;DHT22;19049;52.524;11.468;2022-12-18T03:09:27;-6.40;95.30
32640;DHT22;19049;52.524;11.468;2022-12-18T03:11:58;-6.40;95.30
32640;DHT22;19049;52.524;11.468;2022-12-18T03:14:57;-6.50;95.30
32640;DHT22;19049;52.524;11.468;2022-12-18T03:17:27;-6.50;95.30
32640;DHT22;19049;52.524;11.468;2022-12-18T03:19:56;-6.50;95.30
32640;DHT22;19049;52.524;11.468;2022-12-18T03:22:25;-6.50;95.30
32640;DHT22;19049;52.524;11.468;2022-12-18T03:24:54;-6.50;95.70
32640;DHT22;19049;52.524;11.468;2022-12-18T03:27:22;-6.60;95.30
32640;DHT22;19049;52.524;11.468;2022-12-18T03:30:15;-6.60;95.30
32640;DHT22;19049;52.524;11.468;2022-12-18T03:35:20;-6.60;95.30
32640;DHT22;19049;52.524;11.468;2022-12-18T03:37:46;-6.60;95.30
32640;DHT22;19049;52.524;11.468;2022-12-18T03:40:12;-6.60;95.30
32640;DHT22;19049;52.524;11.468;2022-12-18T03:42:51;-6.60;95.30
32640;DHT22;19049;52.524;11.468;2022-12-18T03:45:30;-6.60;95.40
32640;DHT22;19049;52.524;11.468;2022-12-18T03:50:59;-6.60;95.40
32640;DHT22;19049;52.524;11.468;2022-12-18T03:53:58;-6.50;95.50
32640;DHT22;19049;52.524;11.468;2022-12-18T03:56:28;-6.60;95.40
32640;DHT22;19049;52.524;11.468;2022-12-18T03:58:55;-6.60;95.70
32640;DHT22;19049;52.524;11.468;2022-12-18T04:01:28;-6.60;95.30
32640;DHT22;19049;52.524;11.468;2022-12-18T04:03:55;-6.60;95.30
32640;DHT22;19049;52.524;11.468;2022-12-18T04:06:22;-6.60;95.30
32640;DHT22;19049;52.524;11.468;2022-12-18T04:08:48;-6.60;95.30
32640;DHT22;19049;52.524;11.468;2022-12-18T04:11:15;-6.60;95.30
32640;DHT22;19049;52.524;11.468;2022-12-18T04:13:42;-6.60;95.30
32640;DHT22;19049;52.524;11.468;2022-12-18T04:16:08;-6.70;95.30
32640;DHT22;19049;52.524;11.468;2022-12-18T04:18:36;-6.70;95.30
32640;DHT22;19049;52.524;11.468;2022-12-18T04:21:02;-6.70;95.30
32640;DHT22;19049;52.524;11.468;2022-12-18T04:23:28;-6.70;95.30
32640;DHT22;19049;52.524;11.468;2022-12-18T04:25:54;-6.60;95.30
32640;DHT22;19049;52.524;11.468;2022-12-18T04:28:20;-6.70;95.30
32640;DHT22;19049;52.524;11.468;2022-12-18T04:30:45;-6.70;95.30
32640;DHT22;19049;52.524;11.468;2022-12-18T04:33:12;-6.70;95.30
32640;DHT22;19049;52.524;11.468;2022-12-18T04:35:39;-6.70;95.40
32640;DHT22;19049;52.524;11.468;2022-12-18T04:38:06;-6.60;95.40
32640;DHT22;19049;52.524;11.468;2022-12-18T04:40:33;-6.60;95.30
32640;DHT22;19049;52.524;11.468;2022-12-18T04:43:17;-6.70;95.30
32640;DHT22;19049;52.524;11.468;2022-12-18T04:45:43;-6.60;95.20
32640;DHT22;19049;52.524;11.468;2022-12-18T04:48:09;-6.70;95.20
32640;DHT22;19049;52.524;11.468;2022-12-18T04:50:35;-6.70;95.10
32640;DHT22;19049;52.524;11.468;2022-12-18T04:53:00;-6.70;95.10
32640;DHT22;19049;52.524;11.468;2022-12-18T04:55:26;-6.70;95.00
32640;DHT22;19049;52.524;11.468;2022-12-18T04:57:54;-6.80;95.00
32640;DHT22;19049;52.524;11.468;2022-12-18T05:00:20;-6.80;95.00
32640;DHT22;19049;52.524;11.468;2022-12-18T05:02:46;-6.80;95.00
32640;DHT22;19049;52.524;11.468;2022-12-18T05:05:12;-6.90;95.00
32640;DHT22;19049;52.524;11.468;2022-12-18T05:07:38;-6.80;95.00
32640;DHT22;19049;52.524;11.468;2022-12-18T05:10:04;-6.90;95.00
32640;DHT22;19049;52.524;11.468;2022-12-18T05:12:31;-6.90;95.00
32640;DHT22;19049;52.524;11.468;2022-12-18T05:14:56;-6.90;95.00
32640;DHT22;19049;52.524;11.468;2022-12-18T05:17:22;-6.90;95.00
32640;DHT22;19049;52.524;11.468;2022-12-18T05:19:48;-7.00;95.00
32640;DHT22;19049;52.524;11.468;2022-12-18T05:22:13;-7.00;95.00
32640;DHT22;19049;52.524;11.468;2022-12-18T05:24:39;-7.00;95.00
32640;DHT22;19049;52.524;11.468;2022-12-18T05:27:05;-7.00;95.20
32640;DHT22;19049;52.524;11.468;2022-12-18T05:29:30;-7.00;95.30
32640;DHT22;19049;52.524;11.468;2022-12-18T05:31:56;-6.90;95.50
32640;DHT22;19049;52.524;11.468;2022-12-18T05:34:22;-6.90;95.50
32640;DHT22;19049;52.524;11.468;2022-12-18T05:36:47;-6.80;95.60
32640;DHT22;19049;52.524;11.468;2022-12-18T05:39:13;-6.70;95.70
32640;DHT22;19049;52.524;11.468;2022-12-18T05:41:39;-6.70;95.70
32640;DHT22;19049;52.524;11.468;2022-12-18T05:44:04;-6.60;95.80
32640;DHT22;19049;52.524;11.468;2022-12-18T05:46:30;-6.60;95.80
32640;DHT22;19049;52.524;11.468;2022-12-18T05:48:59;-6.50;95.80
32640;DHT22;19049;52.524;11.468;2022-12-18T05:51:25;-6.50;95.80
32640;DHT22;19049;52.524;11.468;2022-12-18T05:53:51;-6.40;95.80
32640;DHT22;19049;52.524;11.468;2022-12-18T05:56:20;-6.40;95.80
32640;DHT22;19049;52.524;11.468;2022-12-18T05:58:46;-6.40;95.70
32640;DHT22;19049;52.524;11.468;2022-12-18T06:01:15;-6.30;95.70
32640;DHT22;19049;52.524;11.468;2022-12-18T06:03:42;-6.30;95.70
32640;DHT22;19049;52.524;11.468;2022-12-18T06:06:25;-6.20;95.80
32640;DHT22;19049;52.524;11.468;2022-12-18T06:08:51;-6.20;95.80
32640;DHT22;19049;52.524;11.468;2022-12-18T06:11:20;-6.10;95.90
32640;DHT22;19049;52.524;11.468;2022-12-18T06:13:49;-6.10;95.90
32640;DHT22;19049;52.524;11.468;2022-12-18T06:16:15;-6.10;95.90
32640;DHT22;19049;52.524;11.468;2022-12-18T06:18:40;-6.10;95.90
32640;DHT22;19049;52.524;11.468;2022-12-18T06:21:06;-6.00;95.90
32640;DHT22;19049;52.524;11.468;2022-12-18T06:23:32;-6.00;96.00
32640;DHT22;19049;52.524;11.468;2022-12-18T06:25:58;-6.00;96.00
32640;DHT22;19049;52.524;11.468;2022-12-18T06:28:24;-5.90;96.00
32640;DHT22;19049;52.524;11.468;2022-12-18T06:30:50;-5.80;96.10
32640;DHT22;19049;52.524;11.468;2022-12-18T06:33:16;-5.80;96.10
32640;DHT22;19049;52.524;11.468;2022-12-18T06:35:42;-5.80;96.10
32640;DHT22;19049;52.524;11.468;2022-12-18T06:38:08;-5.70;96.10
32640;DHT22;19049;52.524;11.468;2022-12-18T06:40:33;-5.70;96.10
32640;DHT22;19049;52.524;11.468;2022-12-18T06:42:59;-5.70;96.10
32640;DHT22;19049;52.524;11.468;2022-12-18T06:45:25;-5.60;96.10
32640;DHT22;19049;52.524;11.468;2022-12-18T06:47:50;-5.60;96.10
32640;DHT22;19049;52.524;11.468;2022-12-18T06:50:16;-5.60;96.10
32640;DHT22;19049;52.524;11.468;2022-12-18T06:52:45;-5.50;96.10
32640;DHT22;19049;52.524;11.468;2022-12-18T06:55:11;-5.50;96.20
32640;DHT22;19049;52.524;11.468;2022-12-18T06:57:37;-5.50;96.20
32640;DHT22;19049;52.524;11.468;2022-12-18T07:00:06;-5.40;96.30
32640;DHT22;19049;52.524;11.468;2022-12-18T07:02:32;-5.40;96.30
32640;DHT22;19049;52.524;11.468;2022-12-18T07:04:57;-5.30;96.40
32640;DHT22;19049;52.524;11.468;2022-12-18T07:07:25;-5.30;96.70
32640;DHT22;19049;52.524;11.468;2022-12-18T07:09:51;-5.20;96.50
32640;DHT22;19049;52.524;11.468;2022-12-18T07:12:17;-5.10;96.50
32640;DHT22;19049;52.524;11.468;2022-12-18T07:14:43;-5.10;96.50
32640;DHT22;19049;52.524;11.468;2022-12-18T07:17:09;-5.00;96.60
32640;DHT22;19049;52.524;11.468;2022-12-18T07:19:35;-4.90;96.60
32640;DHT22;19049;52.524;11.468;2022-12-18T07:22:00;-4.90;96.60
32640;DHT22;19049;52.524;11.468;2022-12-18T07:24:26;-4.80;96.60
32640;DHT22;19049;52.524;11.468;2022-12-18T07:26:52;-4.80;96.60
32640;DHT22;19049;52.524;11.468;2022-12-18T07:29:18;-4.70;97.00
32640;DHT22;19049;52.524;11.468;2022-12-18T07:31:43;-4.70;96.70
32640;DHT22;19049;52.524;11.468;2022-12-18T07:34:13;-4.60;96.70
32640;DHT22;19049;52.524;11.468;2022-12-18T07:36:39;-4.60;96.70
32640;DHT22;19049;52.524;11.468;2022-12-18T07:39:05;-4.50;96.70
32640;DHT22;19049;52.524;11.468;2022-12-18T07:41:31;-4.50;96.70
32640;DHT22;19049;52.524;11.468;2022-12-18T07:43:56;-4.40;96.70
32640;DHT22;19049;52.524;11.468;2022-12-18T07:46:26;-4.30;96.80
32640;DHT22;19049;52.524;11.468;2022-12-18T07:48:52;-4.30;96.80
32640;DHT22;19049;52.524;11.468;2022-12-18T07:51:18;-4.20;96.90
32640;DHT22;19049;52.524;11.468;2022-12-18T07:53:44;-4.20;96.90
32640;DHT22;19049;52.524;11.468;2022-12-18T07:56:12;-4.10;96.90
32640;DHT22;19049;52.524;11.468;2022-12-18T07:58:38;-4.10;96.90
32640;DHT22;19049;52.524;11.468;2022-12-18T08:01:09;-4.10;96.90
32640;DHT22;19049;52.524;11.468;2022-12-18T08:03:36;-4.00;97.00
32640;DHT22;19049;52.524;11.468;2022-12-18T08:06:04;-3.90;97.00
32640;DHT22;19049;52.524;11.468;2022-12-18T08:08:36;-3.90;97.00
32640;DHT22;19049;52.524;11.468;2022-12-18T08:11:02;-3.80;97.00
32640;DHT22;19049;52.524;11.468;2022-12-18T08:13:28;-3.80;96.90
32640;DHT22;19049;52.524;11.468;2022-12-18T08:16:03;-3.80;96.90
32640;DHT22;19049;52.524;11.468;2022-12-18T08:18:31;-3.70;96.90
32640;DHT22;19049;52.524;11.468;2022-12-18T08:20:57;-3.70;96.90
32640;DHT22;19049;52.524;11.468;2022-12-18T08:23:22;-3.60;96.90
32640;DHT22;19049;52.524;11.468;2022-12-18T08:25:48;-3.70;96.80
32640;DHT22;19049;52.524;11.468;2022-12-18T08:28:16;-3.60;96.80
32640;DHT22;19049;52.524;11.468;2022-12-18T08:30:44;-3.60;96.90
32640;DHT22;19049;52.524;11.468;2022-12-18T08:33:09;-3.60;96.80
32640;DHT22;19049;52.524;11.468;2022-12-18T08:35:36;-3.60;96.80
32640;DHT22;19049;52.524;11.468;2022-12-18T08:38:02;-3.50;96.80
32640;DHT22;19049;52.524;11.468;2022-12-18T08:40:28;-3.40;96.80
32640;DHT22;19049;52.524;11.468;2022-12-18T08:42:54;-3.50;96.80
32640;DHT22;19049;52.524;11.468;2022-12-18T08:45:52;-3.40;96.90
32640;DHT22;19049;52.524;11.468;2022-12-18T08:48:18;-3.40;96.90
32640;DHT22;19049;52.524;11.468;2022-12-18T08:50:52;-3.40;96.90
32640;DHT22;19049;52.524;11.468;2022-12-18T08:53:18;-3.30;97.00
32640;DHT22;19049;52.524;11.468;2022-12-18T08:55:44;-3.20;97.00
32640;DHT22;19049;52.524;11.468;2022-12-18T08:58:09;-3.20;97.00
32640;DHT22;19049;52.524;11.468;2022-12-18T09:00:35;-3.10;97.00
32640;DHT22;19049;52.524;11.468;2022-12-18T09:03:01;-3.10;97.00
32640;DHT22;19049;52.524;11.468;2022-12-18T09:05:27;-3.00;96.90
32640;DHT22;19049;52.524;11.468;2022-12-18T09:07:52;-3.10;96.90
32640;DHT22;19049;52.524;11.468;2022-12-18T09:10:18;-3.00;97.00
32640;DHT22;19049;52.524;11.468;2022-12-18T09:12:44;-2.90;97.20
32640;DHT22;19049;52.524;11.468;2022-12-18T09:15:10;-2.80;97.30
32640;DHT22;19049;52.524;11.468;2022-12-18T09:17:35;-2.70;97.40
32640;DHT22;19049;52.524;11.468;2022-12-18T09:20:01;-2.50;97.50
32640;DHT22;19049;52.524;11.468;2022-12-18T09:22:29;-2.40;97.50
32640;DHT22;19049;52.524;11.468;2022-12-18T09:24:54;-2.20;97.50
32640;DHT22;19049;52.524;11.468;2022-12-18T09:27:20;-2.10;97.20
32640;DHT22;19049;52.524;11.468;2022-12-18T09:29:46;-2.00;97.30
32640;DHT22;19049;52.524;11.468;2022-12-18T09:32:11;-1.90;97.20
32640;DHT22;19049;52.524;11.468;2022-12-18T09:34:37;-1.80;97.20
32640;DHT22;19049;52.524;11.468;2022-12-18T09:37:03;-1.80;97.10
32640;DHT22;19049;52.524;11.468;2022-12-18T09:39:28;-1.80;96.90
32640;DHT22;19049;52.524;11.468;2022-12-18T09:41:58;-1.70;96.90
32640;DHT22;19049;52.524;11.468;2022-12-18T09:44:38;-1.70;96.80
32640;DHT22;19049;52.524;11.468;2022-12-18T09:47:17;-1.70;96.70
32640;DHT22;19049;52.524;11.468;2022-12-18T09:49:50;-1.80;96.60
32640;DHT22;19049;52.524;11.468;2022-12-18T09:57:39;-1.80;96.80
32640;DHT22;19049;52.524;11.468;2022-12-18T10:00:16;-1.80;96.80
32640;DHT22;19049;52.524;11.468;2022-12-18T10:02:43;-1.80;96.80
32640;DHT22;19049;52.524;11.468;2022-12-18T10:05:16;-1.80;96.70
32640;DHT22;19049;52.524;11.468;2022-12-18T10:10:50;-1.80;96.80
32640;DHT22;19049;52.524;11.468;2022-12-18T10:13:43;-1.80;96.80
32640;DHT22;19049;52.524;11.468;2022-12-18T10:16:19;-1.80;97.10
32640;DHT22;19049;52.524;11.468;2022-12-18T10:21:32;-1.80;97.00
32640;DHT22;19049;52.524;11.468;2022-12-18T10:24:23;-1.80;96.90
32640;DHT22;19049;52.524;11.468;2022-12-18T10:26:54;-1.80;96.90
32640;DHT22;19049;52.524;11.468;2022-12-18T10:29:21;-1.80;96.80
32640;DHT22;19049;52.524;11.468;2022-12-18T10:31:47;-1.80;97.00
32640;DHT22;19049;52.524;11.468;2022-12-18T10:34:13;-1.70;97.00
32640;DHT22;19049;52.524;11.468;2022-12-18T10:36:39;-1.70;97.00
32640;DHT22;19049;52.524;11.468;2022-12-18T10:39:23;-1.60;97.10
32640;DHT22;19049;52.524;11.468;2022-12-18T10:41:50;-1.60;97.30
32640;DHT22;19049;52.524;11.468;2022-12-18T10:44:23;-1.50;97.20
32640;DHT22;19049;52.524;11.468;2022-12-18T10:46:53;-1.40;97.20
32640;DHT22;19049;52.524;11.468;2022-12-18T10:49:32;-1.20;97.50
32640;DHT22;19049;52.524;11.468;2022-12-18T10:52:12;-1.10;97.40
32640;DHT22;19049;52.524;11.468;2022-12-18T10:54:39;-1.00;97.40
32640;DHT22;19049;52.524;11.468;2022-12-18T10:57:33;-0.80;97.20
32640;DHT22;19049;52.524;11.468;2022-12-18T11:00:18;-0.70;97.40
32640;DHT22;19049;52.524;11.468;2022-12-18T11:02:45;-0.40;97.70
32640;DHT22;19049;52.524;11.468;2022-12-18T11:05:30;-0.30;97.40
32640;DHT22;19049;52.524;11.468;2022-12-18T11:07:57;-0.10;97.20
32640;DHT22;19049;52.524;11.468;2022-12-18T11:10:46;0.00;97.00
32640;DHT22;19049;52.524;11.468;2022-12-18T11:13:23;0.10;97.00
32640;DHT22;19049;52.524;11.468;2022-12-18T11:15:50;0.20;97.00
32640;DHT22;19049;52.524;11.468;2022-12-18T11:18:26;0.30;97.00
32640;DHT22;19049;52.524;11.468;2022-12-18T11:20:57;0.50;96.80
32640;DHT22;19049;52.524;11.468;2022-12-18T11:23:25;0.60;96.90
32640;DHT22;19049;52.524;11.468;2022-12-18T11:25:58;0.70;97.00
32640;DHT22;19049;52.524;11.468;2022-12-18T11:31:27;1.00;96.90
32640;DHT22;19049;52.524;11.468;2022-12-18T11:36:45;1.30;96.40
32640;DHT22;19049;52.524;11.468;2022-12-18T11:42:04;1.30;95.70
32640;DHT22;19049;52.524;11.468;2022-12-18T11:47:24;1.20;95.40
32640;DHT22;19049;52.524;11.468;2022-12-18T11:49:53;1.20;95.30
32640;DHT22;19049;52.524;11.468;2022-12-18T11:54:46;1.10;95.20
32640;DHT22;19049;52.524;11.468;2022-12-18T11:57:35;1.00;95.20
32640;DHT22;19049;52.524;11.468;2022-12-18T12:00:18;1.00;95.00
32640;DHT22;19049;52.524;11.468;2022-12-18T12:03:10;1.00;95.20
32640;DHT22;19049;52.524;11.468;2022-12-18T12:19:24;1.20;95.50
32640;DHT22;19049;52.524;11.468;2022-12-18T12:22:03;1.30;95.30
32640;DHT22;19049;52.524;11.468;2022-12-18T12:27:51;1.40;95.10
32640;DHT22;19049;52.524;11.468;2022-12-18T12:30:39;1.50;95.50
32640;DHT22;19049;52.524;11.468;2022-12-18T12:37:11;1.80;95.00
32640;DHT22;19049;52.524;11.468;2022-12-18T12:39:18;1.90;94.90
32640;DHT22;19049;52.524;11.468;2022-12-18T12:41:46;1.90;94.80
32640;DHT22;19049;52.524;11.468;2022-12-18T12:44:35;1.90;94.50
32640;DHT22;19049;52.524;11.468;2022-12-18T12:47:29;2.00;94.20
32640;DHT22;19049;52.524;11.468;2022-12-18T12:49:57;1.90;94.20
32640;DHT22;19049;52.524;11.468;2022-12-18T12:52:49;1.80;93.90
32640;DHT22;19049;52.524;11.468;2022-12-18T12:55:23;1.70;93.90
32640;DHT22;19049;52.524;11.468;2022-12-18T13:00:54;1.50;93.70
32640;DHT22;19049;52.524;11.468;2022-12-18T13:03:40;1.50;93.60
32640;DHT22;19049;52.524;11.468;2022-12-18T13:06:58;1.40;94.00
32640;DHT22;19049;52.524;11.468;2022-12-18T13:09:00;1.40;93.90
32640;DHT22;19049;52.524;11.468;2022-12-18T13:11:35;1.50;94.10
32640;DHT22;19049;52.524;11.468;2022-12-18T13:14:39;1.40;93.80
32640;DHT22;19049;52.524;11.468;2022-12-18T13:20:10;1.40;93.90
32640;DHT22;19049;52.524;11.468;2022-12-18T13:25:32;1.40;94.10
32640;DHT22;19049;52.524;11.468;2022-12-18T13:28:13;1.40;94.20
32640;DHT22;19049;52.524;11.468;2022-12-18T13:43:35;1.50;93.60
32640;DHT22;19049;52.524;11.468;2022-12-18T13:46:27;1.40;93.50
32640;DHT22;19049;52.524;11.468;2022-12-18T13:48:57;1.20;93.20
32640;DHT22;19049;52.524;11.468;2022-12-18T13:51:24;1.10;93.30
32640;DHT22;19049;52.524;11.468;2022-12-18T13:54:06;0.90;93.20
32640;DHT22;19049;52.524;11.468;2022-12-18T13:56:43;0.60;93.20
32640;DHT22;19049;52.524;11.468;2022-12-18T13:59:13;0.40;93.20
32640;DHT22;19049;52.524;11.468;2022-12-18T14:01:47;0.20;93.40
32640;DHT22;19049;52.524;11.468;2022-12-18T14:04:27;0.00;93.60
32640;DHT22;19049;52.524;11.468;2022-12-18T14:07:02;-0.20;93.70
32640;DHT22;19049;52.524;11.468;2022-12-18T14:09:30;-0.40;93.70
32640;DHT22;19049;52.524;11.468;2022-12-18T14:11:57;-0.50;93.90
32640;DHT22;19049;52.524;11.468;2022-12-18T14:14:44;-0.70;93.80
32640;DHT22;19049;52.524;11.468;2022-12-18T14:17:11;-0.80;94.20
32640;DHT22;19049;52.524;11.468;2022-12-18T14:19:50;-0.90;94.40
32640;DHT22;19049;52.524;11.468;2022-12-18T14:22:25;-1.00;94.30
32640;DHT22;19049;52.524;11.468;2022-12-18T14:25:20;-1.10;94.50
32640;DHT22;19049;52.524;11.468;2022-12-18T14:30:40;-1.40;94.60
32640;DHT22;19049;52.524;11.468;2022-12-18T14:33:09;-1.40;94.70
32640;DHT22;19049;52.524;11.468;2022-12-18T14:35:41;-1.50;94.70
32640;DHT22;19049;52.524;11.468;2022-12-18T14:38:20;-1.60;94.80
32640;DHT22;19049;52.524;11.468;2022-12-18T14:40:51;-1.70;94.80
32640;DHT22;19049;52.524;11.468;2022-12-18T14:43:17;-1.80;94.80
32640;DHT22;19049;52.524;11.468;2022-12-18T14:45:43;-1.80;94.80
32640;DHT22;19049;52.524;11.468;2022-12-18T14:50:59;-2.00;95.00
32640;DHT22;19049;52.524;11.468;2022-12-18T14:53:44;-2.00;95.10
32640;DHT22;19049;52.524;11.468;2022-12-18T14:56:20;-2.10;95.20
32640;DHT22;19049;52.524;11.468;2022-12-18T15:04:01;-2.20;95.30
32640;DHT22;19049;52.524;11.468;2022-12-18T15:08:53;-2.30;95.40
32640;DHT22;19049;52.524;11.468;2022-12-18T15:13:55;-2.40;95.40
32640;DHT22;19049;52.524;11.468;2022-12-18T15:16:20;-2.40;95.60
32640;DHT22;19049;52.524;11.468;2022-12-18T15:18:46;-2.40;95.60
32640;DHT22;19049;52.524;11.468;2022-12-18T15:21:18;-2.40;95.60
32640;DHT22;19049;52.524;11.468;2022-12-18T15:26:12;-2.50;95.70
32640;DHT22;19049;52.524;11.468;2022-12-18T15:28:55;-2.50;95.80
32640;DHT22;19049;52.524;11.468;2022-12-18T15:31:30;-2.50;95.80
32640;DHT22;19049;52.524;11.468;2022-12-18T15:36:23;-2.50;95.80
32640;DHT22;19049;52.524;11.468;2022-12-18T15:38:50;-2.50;95.80
32640;DHT22;19049;52.524;11.468;2022-12-18T15:41:20;-2.60;95.80
32640;DHT22;19049;52.524;11.468;2022-12-18T15:43:48;-2.60;95.90
32640;DHT22;19049;52.524;11.468;2022-12-18T15:46:19;-2.60;95.90
32640;DHT22;19049;52.524;11.468;2022-12-18T15:48:53;-2.60;95.90
32640;DHT22;19049;52.524;11.468;2022-12-18T15:51:32;-2.60;96.00
32640;DHT22;19049;52.524;11.468;2022-12-18T15:54:00;-2.70;96.00
32640;DHT22;19049;52.524;11.468;2022-12-18T15:56:26;-2.70;96.00
32640;DHT22;19049;52.524;11.468;2022-12-18T15:59:16;-2.70;96.10
32640;DHT22;19049;52.524;11.468;2022-12-18T16:01:43;-2.70;96.20
32640;DHT22;19049;52.524;11.468;2022-12-18T16:04:12;-2.70;96.20
32640;DHT22;19049;52.524;11.468;2022-12-18T16:06:38;-2.70;96.30
32640;DHT22;19049;52.524;11.468;2022-12-18T16:09:07;-2.70;96.20
32640;DHT22;19049;52.524;11.468;2022-12-18T16:11:36;-2.70;96.20
32640;DHT22;19049;52.524;11.468;2022-12-18T16:16:43;-2.70;96.20
32640;DHT22;19049;52.524;11.468;2022-12-18T16:19:09;-2.70;96.20
32640;DHT22;19049;52.524;11.468;2022-12-18T16:21:34;-2.70;96.20
32640;DHT22;19049;52.524;11.468;2022-12-18T16:24:03;-2.70;96.20
32640;DHT22;19049;52.524;11.468;2022-12-18T16:26:28;-2.70;96.20
32640;DHT22;19049;52.524;11.468;2022-12-18T16:28:57;-2.70;96.20
32640;DHT22;19049;52.524;11.468;2022-12-18T16:31:22;-2.70;96.10
32640;DHT22;19049;52.524;11.468;2022-12-18T16:33:48;-2.70;96.20
32640;DHT22;19049;52.524;11.468;2022-12-18T16:36:14;-2.70;96.20
32640;DHT22;19049;52.524;11.468;2022-12-18T16:38:39;-2.70;96.20
32640;DHT22;19049;52.524;11.468;2022-12-18T16:41:18;-2.70;96.30
32640;DHT22;19049;52.524;11.468;2022-12-18T16:43:56;-2.70;96.20
32640;DHT22;19049;52.524;11.468;2022-12-18T16:46:22;-2.70;96.10
32640;DHT22;19049;52.524;11.468;2022-12-18T16:48:48;-2.70;96.20
32640;DHT22;19049;52.524;11.468;2022-12-18T16:51:16;-2.70;96.30
32640;DHT22;19049;52.524;11.468;2022-12-18T16:53:42;-2.70;96.30
32640;DHT22;19049;52.524;11.468;2022-12-18T16:56:07;-2.70;96.20
32640;DHT22;19049;52.524;11.468;2022-12-18T16:58:33;-2.70;96.30
32640;DHT22;19049;52.524;11.468;2022-12-18T17:01:07;-2.70;96.40
32640;DHT22;19049;52.524;11.468;2022-12-18T17:03:33;-2.70;96.40
32640;DHT22;19049;52.524;11.468;2022-12-18T17:06:03;-2.60;96.40
32640;DHT22;19049;52.524;11.468;2022-12-18T17:08:29;-2.60;96.40
32640;DHT22;19049;52.524;11.468;2022-12-18T17:10:55;-2.60;96.40
32640;DHT22;19049;52.524;11.468;2022-12-18T17:13:21;-2.60;96.50
32640;DHT22;19049;52.524;11.468;2022-12-18T17:15:46;-2.50;96.60
32640;DHT22;19049;52.524;11.468;2022-12-18T17:18:12;-2.50;96.60
32640;DHT22;19049;52.524;11.468;2022-12-18T17:20:37;-2.50;96.60
32640;DHT22;19049;52.524;11.468;2022-12-18T17:23:03;-2.50;96.60
32640;DHT22;19049;52.524;11.468;2022-12-18T17:25:29;-2.40;96.60
32640;DHT22;19049;52.524;11.468;2022-12-18T17:27:54;-2.40;96.60
32640;DHT22;19049;52.524;11.468;2022-12-18T17:30:20;-2.40;96.50
32640;DHT22;19049;52.524;11.468;2022-12-18T17:32:46;-2.40;96.50
32640;DHT22;19049;52.524;11.468;2022-12-18T17:35:11;-2.30;96.60